OCN1CF EDDF-GCFV
Flight info
| Callsign | OCN1CF |
|---|---|
| Flight time | 4h 27m |
| Altitude | 36000 |
| Route | ANEKI2L/18 ANEKI Y163 HERBI Y164 MOPAN DCT LUTIX DCT BENOT DCT NEMOS DCT NINTU DCT MEBAK DCT REPSI DCT LERGA DCT MINSO DCT NARAK DCT AGN DCT MAQAB DCT TIVLI DCT ELSAP DCT ZAR DCT KONKE DCT TERSA DCT CJN DCT VTB DCT INPAN DCT CRISA DCT HIJ DCT SVL DCT CLANA DCT KORNO UN857 TERTO |
| Aircraft | A320/M-SDE2E3FGIJ1LORWXYZ/HB1 |
Departure
| Time | 2026-05-04 14:51 |
|---|---|
| Airport | Frankfurt Main Airport (EDDF) |
Arrival
| Time | 2026-05-04 19:19 |
|---|---|
| Airport | Fuerteventura Airport (GCFV) |
| Time | Latitude | Longitude | Altitude | Speed | Heading |
|---|---|---|---|---|---|
| 2026-05-04 14:03 | 50.04179 | 8.56129 | 353 ft | 0 kts | 160° |
| 2026-05-04 14:32 | 50.04177 | 8.56131 | 353 ft | 2 kts | 160° |
| 2026-05-04 14:32 | 50.04136 | 8.56155 | 359 ft | 12 kts | 159° |
| 2026-05-04 14:32 | 50.04080 | 8.56077 | 359 ft | 14 kts | 251° |
| 2026-05-04 14:32 | 50.04041 | 8.55923 | 350 ft | 16 kts | 249° |
| 2026-05-04 14:33 | 50.03996 | 8.55733 | 349 ft | 22 kts | 248° |
| 2026-05-04 14:33 | 50.03942 | 8.55505 | 352 ft | 23 kts | 249° |
| 2026-05-04 14:33 | 50.03904 | 8.55348 | 356 ft | 24 kts | 249° |
| 2026-05-04 14:33 | 50.03844 | 8.55098 | 351 ft | 25 kts | 250° |
| 2026-05-04 14:34 | 50.03781 | 8.54834 | 350 ft | 27 kts | 249° |
| 2026-05-04 14:34 | 50.03715 | 8.54553 | 347 ft | 29 kts | 250° |
| 2026-05-04 14:34 | 50.03650 | 8.54283 | 350 ft | 26 kts | 250° |
| 2026-05-04 14:34 | 50.03586 | 8.54015 | 340 ft | 27 kts | 250° |
| 2026-05-04 14:35 | 50.03518 | 8.53734 | 334 ft | 28 kts | 249° |
| 2026-05-04 14:35 | 50.03452 | 8.53457 | 338 ft | 24 kts | 250° |
| 2026-05-04 14:35 | 50.03392 | 8.53206 | 337 ft | 26 kts | 250° |
| 2026-05-04 14:35 | 50.03327 | 8.52934 | 332 ft | 28 kts | 249° |
| 2026-05-04 14:36 | 50.03268 | 8.52685 | 334 ft | 15 kts | 256° |
| 2026-05-04 14:36 | 50.03249 | 8.52599 | 332 ft | 9 kts | 210° |
| 2026-05-04 14:36 | 50.03194 | 8.52596 | 335 ft | 0 kts | 179° |
| 2026-05-04 14:37 | 50.03123 | 8.52596 | 335 ft | 31 kts | 179° |
| 2026-05-04 14:37 | 50.02664 | 8.52600 | 332 ft | 85 kts | 180° |
| 2026-05-04 14:37 | 50.02474 | 8.52602 | 335 ft | 14 kts | 179° |
| 2026-05-04 14:38 | 50.02333 | 8.52612 | 333 ft | 13 kts | 156° |
| 2026-05-04 14:38 | 50.02315 | 8.52752 | 331 ft | 17 kts | 71° |
| 2026-05-04 14:38 | 50.02330 | 8.52810 | 331 ft | 5 kts | 66° |
| 2026-05-04 14:38 | 50.02357 | 8.52906 | 332 ft | 0 kts | 68° |
| 2026-05-04 14:39 | 50.02357 | 8.52907 | 332 ft | 0 kts | 68° |
| 2026-05-04 14:46 | 50.02368 | 8.52949 | 335 ft | 10 kts | 68° |
| 2026-05-04 14:46 | 50.02408 | 8.53001 | 335 ft | 7 kts | 338° |
| 2026-05-04 14:47 | 50.02444 | 8.52925 | 332 ft | 11 kts | 304° |
| 2026-05-04 14:47 | 50.02487 | 8.52853 | 333 ft | 8 kts | 322° |
| 2026-05-04 14:47 | 50.02588 | 8.52824 | 334 ft | 20 kts | 360° |
| 2026-05-04 14:47 | 50.02725 | 8.52825 | 335 ft | 19 kts | 0° |
| 2026-05-04 14:48 | 50.02858 | 8.52823 | 335 ft | 9 kts | 358° |
| 2026-05-04 14:48 | 50.02910 | 8.52821 | 333 ft | 6 kts | 358° |
| 2026-05-04 14:48 | 50.02938 | 8.52794 | 335 ft | 4 kts | 303° |
| 2026-05-04 14:48 | 50.02940 | 8.52758 | 335 ft | 3 kts | 270° |
| 2026-05-04 14:49 | 50.02940 | 8.52749 | 335 ft | 0 kts | 270° |
| 2026-05-04 14:49 | 50.02941 | 8.52737 | 335 ft | 7 kts | 270° |
| 2026-05-04 14:49 | 50.02940 | 8.52604 | 335 ft | 8 kts | 257° |
| 2026-05-04 14:50 | 50.02907 | 8.52599 | 335 ft | 0 kts | 178° |
| 2026-05-04 14:50 | 50.02793 | 8.52600 | 333 ft | 49 kts | 180° |
| 2026-05-04 14:50 | 50.02227 | 8.52605 | 335 ft | 111 kts | 180° |
| 2026-05-04 14:51 | 50.01280 | 8.52616 | 334 ft | 159 kts | 179° |
| 2026-05-04 14:51 | 50.00110 | 8.52628 | 747 ft | 169 kts | 180° |
| 2026-05-04 14:51 | 49.98921 | 8.52712 | 1388 ft | 173 kts | 179° |
| 2026-05-04 14:51 | 49.97704 | 8.52838 | 2007 ft | 177 kts | 180° |
| 2026-05-04 14:52 | 49.96424 | 8.52942 | 2340 ft | 194 kts | 181° |
| 2026-05-04 14:52 | 49.94993 | 8.53025 | 2566 ft | 218 kts | 181° |
| 2026-05-04 14:52 | 49.93421 | 8.53117 | 3046 ft | 230 kts | 180° |
| 2026-05-04 14:52 | 49.91802 | 8.53220 | 3731 ft | 236 kts | 180° |
| 2026-05-04 14:53 | 49.90150 | 8.53328 | 3961 ft | 237 kts | 180° |
| 2026-05-04 14:53 | 49.88507 | 8.53441 | 4005 ft | 236 kts | 181° |
| 2026-05-04 14:53 | 49.86848 | 8.53554 | 4377 ft | 240 kts | 180° |
| 2026-05-04 14:53 | 49.85187 | 8.53666 | 5300 ft | 237 kts | 179° |
| 2026-05-04 14:54 | 49.83558 | 8.53778 | 6243 ft | 233 kts | 178° |
| 2026-05-04 14:54 | 49.81945 | 8.53890 | 7056 ft | 232 kts | 178° |
| 2026-05-04 14:54 | 49.80335 | 8.54002 | 7834 ft | 232 kts | 178° |
| 2026-05-04 14:54 | 49.78721 | 8.54113 | 8620 ft | 233 kts | 179° |
| 2026-05-04 14:55 | 49.77080 | 8.54020 | 9219 ft | 244 kts | 185° |
| 2026-05-04 14:55 | 49.75317 | 8.53788 | 9586 ft | 262 kts | 186° |
| 2026-05-04 14:55 | 49.73474 | 8.53538 | 10209 ft | 271 kts | 186° |
| 2026-05-04 14:55 | 49.71517 | 8.53273 | 10430 ft | 294 kts | 186° |
| 2026-05-04 14:56 | 49.69403 | 8.52991 | 10612 ft | 316 kts | 186° |
| 2026-05-04 14:56 | 49.67174 | 8.52697 | 11079 ft | 326 kts | 185° |
| 2026-05-04 14:56 | 49.64897 | 8.52399 | 11699 ft | 331 kts | 186° |
| 2026-05-04 14:56 | 49.62587 | 8.52095 | 12331 ft | 335 kts | 186° |
| 2026-05-04 14:57 | 49.60252 | 8.51785 | 12964 ft | 340 kts | 186° |
| 2026-05-04 14:57 | 49.57882 | 8.51469 | 13597 ft | 344 kts | 186° |
| 2026-05-04 14:57 | 49.55516 | 8.51155 | 14165 ft | 348 kts | 186° |
| 2026-05-04 14:57 | 49.53092 | 8.50835 | 14746 ft | 351 kts | 186° |
| 2026-05-04 14:58 | 49.50650 | 8.50476 | 15320 ft | 354 kts | 191° |
| 2026-05-04 14:58 | 49.48280 | 8.49464 | 15884 ft | 355 kts | 199° |
| 2026-05-04 14:58 | 49.45899 | 8.48256 | 16475 ft | 358 kts | 199° |
| 2026-05-04 14:58 | 49.43524 | 8.47042 | 17026 ft | 360 kts | 200° |
| 2026-05-04 14:59 | 49.41166 | 8.45839 | 17586 ft | 364 kts | 200° |
| 2026-05-04 14:59 | 49.38755 | 8.44613 | 18138 ft | 367 kts | 200° |
| 2026-05-04 14:59 | 49.33843 | 8.42123 | 19106 ft | 372 kts | 200° |
| 2026-05-04 15:00 | 49.31412 | 8.40891 | 19576 ft | 374 kts | 200° |
| 2026-05-04 15:00 | 49.28933 | 8.39637 | 20047 ft | 376 kts | 200° |
| 2026-05-04 15:00 | 49.26406 | 8.38364 | 20533 ft | 378 kts | 200° |
| 2026-05-04 15:01 | 49.21375 | 8.35840 | 21434 ft | 383 kts | 199° |
| 2026-05-04 15:01 | 49.18866 | 8.34585 | 21836 ft | 386 kts | 199° |
| 2026-05-04 15:01 | 49.16305 | 8.33302 | 22259 ft | 389 kts | 200° |
| 2026-05-04 15:01 | 49.13728 | 8.32008 | 22694 ft | 391 kts | 200° |
| 2026-05-04 15:02 | 49.11139 | 8.30707 | 23123 ft | 393 kts | 200° |
| 2026-05-04 15:02 | 49.08532 | 8.29399 | 23539 ft | 396 kts | 200° |
| 2026-05-04 15:02 | 49.05908 | 8.28083 | 23922 ft | 398 kts | 200° |
| 2026-05-04 15:02 | 49.03275 | 8.26764 | 24331 ft | 399 kts | 200° |
| 2026-05-04 15:03 | 49.00632 | 8.25444 | 24736 ft | 400 kts | 199° |
| 2026-05-04 15:03 | 48.97980 | 8.24123 | 25101 ft | 402 kts | 199° |
| 2026-05-04 15:03 | 48.95316 | 8.22799 | 25453 ft | 403 kts | 199° |
| 2026-05-04 15:03 | 48.92646 | 8.21476 | 25805 ft | 404 kts | 199° |
| 2026-05-04 15:04 | 48.89968 | 8.20152 | 26157 ft | 405 kts | 199° |
| 2026-05-04 15:04 | 48.87282 | 8.18823 | 26507 ft | 407 kts | 199° |
| 2026-05-04 15:04 | 48.84589 | 8.17489 | 26854 ft | 408 kts | 199° |
| 2026-05-04 15:04 | 48.81889 | 8.16151 | 27200 ft | 409 kts | 199° |
| 2026-05-04 15:05 | 48.79180 | 8.14810 | 27552 ft | 410 kts | 199° |
| 2026-05-04 15:05 | 48.76460 | 8.13464 | 27902 ft | 412 kts | 199° |
| 2026-05-04 15:05 | 48.73727 | 8.12111 | 28255 ft | 414 kts | 199° |
| 2026-05-04 15:05 | 48.70980 | 8.10750 | 28588 ft | 416 kts | 199° |
| 2026-05-04 15:06 | 48.68227 | 8.09391 | 28898 ft | 417 kts | 199° |
| 2026-05-04 15:06 | 48.65463 | 8.08035 | 29193 ft | 418 kts | 199° |
| 2026-05-04 15:06 | 48.62691 | 8.06679 | 29474 ft | 419 kts | 199° |
| 2026-05-04 15:07 | 48.57120 | 8.03952 | 30032 ft | 422 kts | 199° |
| 2026-05-04 15:07 | 48.54330 | 8.02587 | 30314 ft | 422 kts | 199° |
| 2026-05-04 15:07 | 48.51543 | 8.01227 | 30650 ft | 421 kts | 199° |
| 2026-05-04 15:07 | 48.48761 | 7.99870 | 30958 ft | 420 kts | 199° |
| 2026-05-04 15:08 | 48.45984 | 7.98514 | 31266 ft | 419 kts | 199° |
| 2026-05-04 15:08 | 48.43209 | 7.97161 | 31578 ft | 419 kts | 199° |
| 2026-05-04 15:08 | 48.40441 | 7.95814 | 31866 ft | 418 kts | 199° |
| 2026-05-04 15:08 | 48.37675 | 7.94469 | 32173 ft | 417 kts | 199° |
| 2026-05-04 15:09 | 48.34913 | 7.93131 | 32483 ft | 417 kts | 199° |
| 2026-05-04 15:09 | 48.32156 | 7.91796 | 32787 ft | 416 kts | 199° |
| 2026-05-04 15:09 | 48.29404 | 7.90464 | 33098 ft | 415 kts | 199° |
| 2026-05-04 15:10 | 48.23914 | 7.87812 | 33687 ft | 414 kts | 199° |
| 2026-05-04 15:10 | 48.21175 | 7.86492 | 33985 ft | 413 kts | 200° |
| 2026-05-04 15:10 | 48.15715 | 7.83855 | 34485 ft | 412 kts | 199° |
| 2026-05-04 15:11 | 48.12984 | 7.82538 | 34699 ft | 413 kts | 199° |
| 2026-05-04 15:11 | 48.10246 | 7.81222 | 34917 ft | 413 kts | 199° |
| 2026-05-04 15:11 | 48.07549 | 7.79929 | 35120 ft | 413 kts | 199° |
| 2026-05-04 15:11 | 48.04819 | 7.78621 | 35326 ft | 413 kts | 199° |
| 2026-05-04 15:12 | 48.02085 | 7.77312 | 35525 ft | 413 kts | 199° |
| 2026-05-04 15:12 | 47.99350 | 7.76003 | 35716 ft | 413 kts | 199° |
| 2026-05-04 15:12 | 47.96614 | 7.74693 | 35919 ft | 413 kts | 199° |
| 2026-05-04 15:13 | 47.91131 | 7.72071 | 35994 ft | 414 kts | 199° |
| 2026-05-04 15:13 | 47.85642 | 7.69462 | 35994 ft | 414 kts | 199° |
| 2026-05-04 15:14 | 47.80151 | 7.66862 | 36013 ft | 414 kts | 199° |
| 2026-05-04 15:14 | 47.74663 | 7.64266 | 36014 ft | 414 kts | 199° |
| 2026-05-04 15:15 | 47.69169 | 7.61669 | 36027 ft | 414 kts | 199° |
| 2026-05-04 15:15 | 47.63677 | 7.59073 | 36029 ft | 414 kts | 199° |
| 2026-05-04 15:16 | 47.55437 | 7.55202 | 36031 ft | 414 kts | 199° |
| 2026-05-04 15:17 | 47.47190 | 7.51327 | 36045 ft | 415 kts | 199° |
| 2026-05-04 15:17 | 47.38947 | 7.47485 | 36038 ft | 414 kts | 199° |
| 2026-05-04 15:18 | 47.34387 | 7.45360 | 36032 ft | 413 kts | 199° |
| 2026-05-04 15:19 | 47.26166 | 7.41523 | 36033 ft | 413 kts | 199° |
| 2026-05-04 15:19 | 47.18077 | 7.37231 | 36035 ft | 411 kts | 211° |
| 2026-05-04 15:20 | 47.13718 | 7.31918 | 36032 ft | 409 kts | 230° |
| 2026-05-04 15:20 | 47.10185 | 7.25367 | 36026 ft | 409 kts | 231° |
| 2026-05-04 15:21 | 47.06636 | 7.18848 | 36026 ft | 409 kts | 231° |
| 2026-05-04 15:22 | 47.01298 | 7.09084 | 36057 ft | 409 kts | 231° |
| 2026-05-04 15:22 | 46.95957 | 6.99332 | 36065 ft | 409 kts | 231° |
| 2026-05-04 15:23 | 46.92395 | 6.92837 | 36105 ft | 409 kts | 231° |
| 2026-05-04 15:23 | 46.88837 | 6.86357 | 36102 ft | 408 kts | 231° |
| 2026-05-04 15:24 | 46.81704 | 6.73488 | 36093 ft | 407 kts | 230° |
| 2026-05-04 15:25 | 46.78136 | 6.67071 | 36085 ft | 407 kts | 230° |
| 2026-05-04 15:26 | 46.72791 | 6.57470 | 36070 ft | 406 kts | 231° |
| 2026-05-04 15:26 | 46.67442 | 6.47895 | 36085 ft | 406 kts | 230° |
| 2026-05-04 15:27 | 46.62100 | 6.38358 | 36082 ft | 405 kts | 230° |
| 2026-05-04 15:28 | 46.56759 | 6.28871 | 36072 ft | 404 kts | 230° |
| 2026-05-04 15:29 | 46.51410 | 6.19408 | 36073 ft | 404 kts | 230° |
| 2026-05-04 15:30 | 46.38936 | 5.97433 | 36078 ft | 403 kts | 230° |
| 2026-05-04 15:31 | 46.33589 | 5.88086 | 36071 ft | 401 kts | 230° |
| 2026-05-04 15:32 | 46.24709 | 5.72596 | 36060 ft | 401 kts | 230° |
| 2026-05-04 15:34 | 46.15801 | 5.57160 | 36047 ft | 399 kts | 230° |
| 2026-05-04 15:34 | 46.10923 | 5.47369 | 36042 ft | 399 kts | 234° |
| 2026-05-04 15:35 | 46.06187 | 5.37481 | 36024 ft | 400 kts | 234° |
| 2026-05-04 15:36 | 46.01434 | 5.27634 | 36021 ft | 399 kts | 234° |
| 2026-05-04 15:36 | 45.98266 | 5.21081 | 36017 ft | 399 kts | 234° |
| 2026-05-04 15:37 | 45.95093 | 5.14538 | 36021 ft | 399 kts | 234° |
| 2026-05-04 15:37 | 45.91918 | 5.07994 | 36039 ft | 399 kts | 234° |
| 2026-05-04 15:38 | 45.88763 | 5.01511 | 36035 ft | 399 kts | 234° |
| 2026-05-04 15:38 | 45.85582 | 4.94996 | 36023 ft | 399 kts | 234° |
| 2026-05-04 15:39 | 45.82402 | 4.88489 | 36027 ft | 398 kts | 234° |
| 2026-05-04 15:40 | 45.77632 | 4.78743 | 36024 ft | 398 kts | 234° |
| 2026-05-04 15:40 | 45.74444 | 4.72263 | 36023 ft | 398 kts | 234° |
| 2026-05-04 15:41 | 45.71248 | 4.65788 | 36019 ft | 398 kts | 234° |
| 2026-05-04 15:41 | 45.68056 | 4.59320 | 36002 ft | 398 kts | 234° |
| 2026-05-04 15:42 | 45.64861 | 4.52863 | 36000 ft | 398 kts | 234° |
| 2026-05-04 15:42 | 45.61662 | 4.46418 | 36002 ft | 398 kts | 234° |
| 2026-05-04 15:43 | 45.58461 | 4.39983 | 36004 ft | 397 kts | 234° |
| 2026-05-04 15:43 | 45.55256 | 4.33557 | 36003 ft | 397 kts | 234° |
| 2026-05-04 15:44 | 45.52048 | 4.27128 | 36025 ft | 397 kts | 233° |
| 2026-05-04 15:44 | 45.48836 | 4.20713 | 36014 ft | 398 kts | 233° |
| 2026-05-04 15:45 | 45.45623 | 4.14308 | 36010 ft | 397 kts | 233° |
| 2026-05-04 15:45 | 45.42402 | 4.07918 | 36005 ft | 397 kts | 233° |
| 2026-05-04 15:46 | 45.39179 | 4.01536 | 35993 ft | 397 kts | 233° |
| 2026-05-04 15:46 | 45.35957 | 3.95159 | 35992 ft | 397 kts | 233° |
| 2026-05-04 15:47 | 45.32730 | 3.88783 | 35993 ft | 397 kts | 233° |
| 2026-05-04 15:47 | 45.29497 | 3.82427 | 35996 ft | 397 kts | 233° |
| 2026-05-04 15:48 | 45.26282 | 3.76116 | 35990 ft | 397 kts | 233° |
| 2026-05-04 15:48 | 45.21498 | 3.66517 | 35976 ft | 397 kts | 234° |
| 2026-05-04 15:49 | 45.18358 | 3.60072 | 35979 ft | 397 kts | 234° |
| 2026-05-04 15:49 | 45.15204 | 3.53646 | 35971 ft | 397 kts | 234° |
| 2026-05-04 15:50 | 45.12026 | 3.47242 | 35963 ft | 397 kts | 234° |
| 2026-05-04 15:50 | 45.08853 | 3.40856 | 35971 ft | 396 kts | 233° |
| 2026-05-04 15:51 | 45.05682 | 3.34479 | 35968 ft | 396 kts | 233° |
| 2026-05-04 15:51 | 45.02509 | 3.28109 | 35972 ft | 396 kts | 233° |
| 2026-05-04 15:52 | 44.99325 | 3.21744 | 35973 ft | 396 kts | 233° |
| 2026-05-04 15:52 | 44.96141 | 3.15394 | 35972 ft | 396 kts | 233° |
| 2026-05-04 15:53 | 44.92961 | 3.09049 | 35966 ft | 396 kts | 233° |
| 2026-05-04 15:53 | 44.89782 | 3.02713 | 35984 ft | 396 kts | 233° |
| 2026-05-04 15:54 | 44.86587 | 2.96385 | 35963 ft | 396 kts | 233° |
| 2026-05-04 15:54 | 44.83416 | 2.90027 | 35952 ft | 397 kts | 235° |
| 2026-05-04 15:55 | 44.80409 | 2.83490 | 35949 ft | 398 kts | 236° |
| 2026-05-04 15:55 | 44.77451 | 2.76908 | 35952 ft | 398 kts | 236° |
| 2026-05-04 15:56 | 44.74456 | 2.70361 | 35941 ft | 398 kts | 236° |
| 2026-05-04 15:56 | 44.71427 | 2.63840 | 35955 ft | 399 kts | 235° |
| 2026-05-04 15:57 | 44.68378 | 2.57301 | 35939 ft | 401 kts | 235° |
| 2026-05-04 15:57 | 44.65324 | 2.50735 | 35932 ft | 402 kts | 235° |
| 2026-05-04 15:58 | 44.62255 | 2.44155 | 35929 ft | 403 kts | 235° |
| 2026-05-04 15:58 | 44.59181 | 2.37573 | 35932 ft | 404 kts | 235° |
| 2026-05-04 15:59 | 44.56101 | 2.31001 | 35935 ft | 403 kts | 235° |
| 2026-05-04 15:59 | 44.53021 | 2.24438 | 35946 ft | 403 kts | 235° |
| 2026-05-04 16:00 | 44.49930 | 2.17863 | 35939 ft | 405 kts | 235° |
| 2026-05-04 16:00 | 44.46842 | 2.11322 | 35936 ft | 405 kts | 235° |
| 2026-05-04 16:01 | 44.43728 | 2.04739 | 35934 ft | 406 kts | 235° |
| 2026-05-04 16:01 | 44.40614 | 1.98148 | 35932 ft | 406 kts | 235° |
| 2026-05-04 16:02 | 44.37494 | 1.91569 | 35935 ft | 405 kts | 235° |
| 2026-05-04 16:03 | 44.33313 | 1.82796 | 35949 ft | 405 kts | 234° |
| 2026-05-04 16:03 | 44.30179 | 1.76248 | 35949 ft | 406 kts | 234° |
| 2026-05-04 16:04 | 44.27077 | 1.69670 | 35946 ft | 406 kts | 235° |
| 2026-05-04 16:04 | 44.22537 | 1.59698 | 35940 ft | 406 kts | 235° |
| 2026-05-04 16:05 | 44.19506 | 1.53060 | 35935 ft | 406 kts | 235° |
| 2026-05-04 16:06 | 44.14934 | 1.43172 | 35956 ft | 403 kts | 234° |
| 2026-05-04 16:07 | 44.08854 | 1.30095 | 35956 ft | 402 kts | 234° |
| 2026-05-04 16:08 | 44.02789 | 1.17077 | 35956 ft | 401 kts | 234° |
| 2026-05-04 16:09 | 43.95176 | 1.00821 | 35937 ft | 403 kts | 234° |
| 2026-05-04 16:10 | 43.88982 | 0.87879 | 35937 ft | 401 kts | 228° |
| 2026-05-04 16:11 | 43.80835 | 0.77443 | 35931 ft | 399 kts | 220° |
| 2026-05-04 16:12 | 43.68328 | 0.62023 | 35946 ft | 403 kts | 220° |
| 2026-05-04 16:13 | 43.59920 | 0.51725 | 35955 ft | 405 kts | 220° |
| 2026-05-04 16:14 | 43.51483 | 0.41416 | 35971 ft | 405 kts | 220° |
| 2026-05-04 16:16 | 43.40922 | 0.28584 | 35987 ft | 406 kts | 221° |
| 2026-05-04 16:17 | 43.30352 | 0.15788 | 35989 ft | 405 kts | 220° |
| 2026-05-04 16:18 | 43.21910 | 0.05625 | 35986 ft | 405 kts | 221° |
| 2026-05-04 16:19 | 43.11276 | -0.07104 | 36040 ft | 405 kts | 221° |
| 2026-05-04 16:20 | 43.00686 | -0.19756 | 36005 ft | 406 kts | 221° |
| 2026-05-04 16:22 | 42.90080 | -0.32347 | 35999 ft | 403 kts | 221° |
| 2026-05-04 16:23 | 42.76594 | -0.45739 | 35979 ft | 404 kts | 203° |
| 2026-05-04 16:25 | 42.60832 | -0.54018 | 35949 ft | 405 kts | 203° |
| 2026-05-04 16:26 | 42.42472 | -0.63631 | 35969 ft | 403 kts | 203° |
| 2026-05-04 16:28 | 42.29406 | -0.70411 | 35959 ft | 402 kts | 203° |
| 2026-05-04 16:29 | 42.11126 | -0.79893 | 35938 ft | 404 kts | 204° |
| 2026-05-04 16:31 | 41.97902 | -0.86693 | 35933 ft | 407 kts | 204° |
| 2026-05-04 16:32 | 41.82006 | -0.94825 | 35941 ft | 408 kts | 204° |
| 2026-05-04 16:33 | 41.71409 | -1.00241 | 35925 ft | 407 kts | 204° |
| 2026-05-04 16:34 | 41.63930 | -1.05352 | 35943 ft | 401 kts | 222° |
| 2026-05-04 16:35 | 41.51507 | -1.20325 | 35937 ft | 402 kts | 224° |
| 2026-05-04 16:36 | 41.45260 | -1.27830 | 35949 ft | 404 kts | 224° |
| 2026-05-04 16:37 | 41.38986 | -1.35350 | 35947 ft | 405 kts | 224° |
| 2026-05-04 16:38 | 41.30640 | -1.45324 | 35953 ft | 404 kts | 224° |
| 2026-05-04 16:39 | 41.20206 | -1.57731 | 35984 ft | 402 kts | 224° |
| 2026-05-04 16:40 | 41.11883 | -1.67595 | 35958 ft | 401 kts | 224° |
| 2026-05-04 16:41 | 41.01510 | -1.79845 | 35975 ft | 398 kts | 224° |
| 2026-05-04 16:43 | 40.91861 | -1.91180 | 35976 ft | 398 kts | 224° |
| 2026-05-04 16:43 | 40.85632 | -1.98473 | 35936 ft | 400 kts | 224° |
| 2026-05-04 16:45 | 40.73100 | -2.13093 | 35949 ft | 402 kts | 224° |
| 2026-05-04 16:46 | 40.62593 | -2.25252 | 35958 ft | 402 kts | 224° |
| 2026-05-04 16:47 | 40.54179 | -2.34968 | 35950 ft | 403 kts | 224° |
| 2026-05-04 16:48 | 40.45725 | -2.44684 | 35933 ft | 404 kts | 224° |
| 2026-05-04 16:49 | 40.37291 | -2.54417 | 35935 ft | 402 kts | 229° |
| 2026-05-04 16:50 | 40.30131 | -2.65601 | 35944 ft | 400 kts | 232° |
| 2026-05-04 16:51 | 40.24786 | -2.74005 | 35942 ft | 400 kts | 232° |
| 2026-05-04 16:52 | 40.17636 | -2.85177 | 35927 ft | 400 kts | 232° |
| 2026-05-04 16:53 | 40.12289 | -2.93532 | 35937 ft | 399 kts | 232° |
| 2026-05-04 16:54 | 40.05158 | -3.04637 | 35940 ft | 399 kts | 232° |
| 2026-05-04 16:55 | 39.94424 | -3.21251 | 35924 ft | 399 kts | 233° |
| 2026-05-04 16:56 | 39.85473 | -3.35044 | 35934 ft | 399 kts | 233° |
| 2026-05-04 16:57 | 39.80098 | -3.43295 | 35933 ft | 399 kts | 233° |
| 2026-05-04 16:58 | 39.72556 | -3.53886 | 35929 ft | 400 kts | 229° |
| 2026-05-04 17:00 | 39.60772 | -3.69137 | 35944 ft | 399 kts | 229° |
| 2026-05-04 17:01 | 39.51023 | -3.81926 | 35930 ft | 399 kts | 229° |
| 2026-05-04 17:02 | 39.43200 | -3.92110 | 35949 ft | 399 kts | 229° |
| 2026-05-04 17:03 | 39.37306 | -3.99764 | 35959 ft | 399 kts | 229° |
| 2026-05-04 17:03 | 39.31441 | -4.07379 | 35960 ft | 398 kts | 229° |
| 2026-05-04 17:04 | 39.23633 | -4.17474 | 35958 ft | 399 kts | 229° |
| 2026-05-04 17:05 | 39.15759 | -4.27594 | 35983 ft | 398 kts | 229° |
| 2026-05-04 17:06 | 39.09882 | -4.35148 | 35988 ft | 398 kts | 229° |
| 2026-05-04 17:07 | 39.04662 | -4.41838 | 35979 ft | 398 kts | 229° |
| 2026-05-04 17:07 | 39.00080 | -4.47703 | 35964 ft | 397 kts | 229° |
| 2026-05-04 17:08 | 38.94206 | -4.55196 | 35978 ft | 397 kts | 229° |
| 2026-05-04 17:09 | 38.90288 | -4.60179 | 35981 ft | 396 kts | 229° |
| 2026-05-04 17:09 | 38.86373 | -4.65164 | 35981 ft | 397 kts | 229° |
| 2026-05-04 17:10 | 38.76585 | -4.77564 | 35964 ft | 396 kts | 229° |
| 2026-05-04 17:11 | 38.72631 | -4.82553 | 35975 ft | 396 kts | 229° |
| 2026-05-04 17:12 | 38.66737 | -4.89974 | 35978 ft | 396 kts | 229° |
| 2026-05-04 17:13 | 38.56930 | -5.02300 | 35981 ft | 397 kts | 229° |
| 2026-05-04 17:14 | 38.48498 | -5.11433 | 35961 ft | 409 kts | 212° |
| 2026-05-04 17:15 | 38.40811 | -5.16194 | 35978 ft | 410 kts | 212° |
| 2026-05-04 17:16 | 38.30562 | -5.22559 | 35989 ft | 410 kts | 212° |
| 2026-05-04 17:17 | 38.20313 | -5.28896 | 35991 ft | 410 kts | 212° |
| 2026-05-04 17:18 | 38.10060 | -5.35213 | 35997 ft | 410 kts | 212° |
| 2026-05-04 17:19 | 37.99816 | -5.41509 | 35974 ft | 411 kts | 212° |
| 2026-05-04 17:20 | 37.89535 | -5.47825 | 35985 ft | 411 kts | 212° |
| 2026-05-04 17:20 | 37.81809 | -5.52541 | 35968 ft | 411 kts | 213° |
| 2026-05-04 17:21 | 37.71505 | -5.58813 | 35996 ft | 411 kts | 213° |
| 2026-05-04 17:22 | 37.66359 | -5.61942 | 36003 ft | 410 kts | 213° |
| 2026-05-04 17:23 | 37.56073 | -5.68181 | 35961 ft | 410 kts | 213° |
| 2026-05-04 17:24 | 37.48372 | -5.72843 | 35970 ft | 409 kts | 213° |
| 2026-05-04 17:24 | 37.41017 | -5.78076 | 35980 ft | 397 kts | 226° |
| 2026-05-04 17:25 | 37.39627 | -5.79569 | 35981 ft | 397 kts | 226° |
| 2026-05-04 17:26 | 37.31174 | -5.88567 | 35978 ft | 399 kts | 226° |
| 2026-05-04 17:27 | 37.20587 | -5.99791 | 35999 ft | 398 kts | 226° |
| 2026-05-04 17:28 | 37.12126 | -6.08732 | 36023 ft | 398 kts | 226° |
| 2026-05-04 17:29 | 36.99434 | -6.22120 | 36028 ft | 397 kts | 226° |
| 2026-05-04 17:31 | 36.88849 | -6.33228 | 36045 ft | 397 kts | 226° |
| 2026-05-04 17:32 | 36.78265 | -6.44263 | 36038 ft | 397 kts | 226° |
| 2026-05-04 17:33 | 36.69761 | -6.53131 | 36046 ft | 397 kts | 226° |
| 2026-05-04 17:34 | 36.61271 | -6.61953 | 36050 ft | 397 kts | 226° |
| 2026-05-04 17:35 | 36.50670 | -6.72925 | 36046 ft | 398 kts | 226° |
| 2026-05-04 17:36 | 36.46415 | -6.77319 | 36055 ft | 398 kts | 226° |
| 2026-05-04 17:36 | 36.42155 | -6.81709 | 36069 ft | 398 kts | 226° |
| 2026-05-04 17:37 | 36.37893 | -6.86094 | 36066 ft | 398 kts | 226° |
| 2026-05-04 17:37 | 36.33623 | -6.90478 | 36074 ft | 399 kts | 226° |
| 2026-05-04 17:38 | 36.29346 | -6.94863 | 36033 ft | 399 kts | 226° |
| 2026-05-04 17:38 | 36.25078 | -6.99239 | 36065 ft | 398 kts | 226° |
| 2026-05-04 17:39 | 36.18683 | -7.05779 | 36082 ft | 397 kts | 226° |
| 2026-05-04 17:39 | 36.14425 | -7.10125 | 36084 ft | 397 kts | 226° |
| 2026-05-04 17:40 | 36.10171 | -7.14464 | 36087 ft | 396 kts | 226° |
| 2026-05-04 17:40 | 36.05915 | -7.18803 | 36088 ft | 396 kts | 226° |
| 2026-05-04 17:41 | 36.01656 | -7.23129 | 36060 ft | 396 kts | 226° |
| 2026-05-04 17:41 | 35.97400 | -7.27442 | 36081 ft | 395 kts | 226° |
| 2026-05-04 17:42 | 35.93148 | -7.31741 | 36091 ft | 395 kts | 226° |
| 2026-05-04 17:42 | 35.88900 | -7.36030 | 36090 ft | 394 kts | 226° |
| 2026-05-04 17:43 | 35.84655 | -7.40318 | 36092 ft | 394 kts | 226° |
| 2026-05-04 17:43 | 35.80412 | -7.44587 | 36091 ft | 394 kts | 226° |
| 2026-05-04 17:44 | 35.76165 | -7.48841 | 36090 ft | 394 kts | 226° |
| 2026-05-04 17:44 | 35.71907 | -7.53078 | 36087 ft | 394 kts | 226° |
| 2026-05-04 17:45 | 35.67646 | -7.57311 | 36088 ft | 394 kts | 226° |
| 2026-05-04 17:45 | 35.63384 | -7.61546 | 36092 ft | 394 kts | 226° |
| 2026-05-04 17:46 | 35.59115 | -7.65786 | 36089 ft | 394 kts | 226° |
| 2026-05-04 17:46 | 35.54850 | -7.70023 | 36092 ft | 395 kts | 226° |
| 2026-05-04 17:47 | 35.50605 | -7.74231 | 36093 ft | 395 kts | 225° |
| 2026-05-04 17:47 | 35.46325 | -7.78461 | 36074 ft | 395 kts | 225° |
| 2026-05-04 17:48 | 35.42042 | -7.82684 | 36079 ft | 395 kts | 225° |
| 2026-05-04 17:48 | 35.37770 | -7.86920 | 36087 ft | 395 kts | 225° |
| 2026-05-04 17:49 | 35.33522 | -7.91178 | 36093 ft | 394 kts | 226° |
| 2026-05-04 17:49 | 35.29277 | -7.95442 | 36095 ft | 394 kts | 226° |
| 2026-05-04 17:50 | 35.25023 | -7.99680 | 36099 ft | 394 kts | 225° |
| 2026-05-04 17:50 | 35.20767 | -8.03907 | 36069 ft | 394 kts | 225° |
| 2026-05-04 17:51 | 35.16518 | -8.08128 | 36080 ft | 393 kts | 225° |
| 2026-05-04 17:51 | 35.12273 | -8.12342 | 36086 ft | 393 kts | 225° |
| 2026-05-04 17:52 | 35.08027 | -8.16558 | 36089 ft | 393 kts | 225° |
| 2026-05-04 17:52 | 35.03780 | -8.20761 | 36095 ft | 393 kts | 225° |
| 2026-05-04 17:53 | 34.99531 | -8.24960 | 36095 ft | 393 kts | 225° |
| 2026-05-04 17:53 | 34.95278 | -8.29155 | 36073 ft | 393 kts | 225° |
| 2026-05-04 17:54 | 34.91031 | -8.33349 | 36094 ft | 393 kts | 225° |
| 2026-05-04 17:54 | 34.86780 | -8.37538 | 36095 ft | 393 kts | 225° |
| 2026-05-04 17:55 | 34.82532 | -8.41715 | 36102 ft | 393 kts | 225° |
| 2026-05-04 17:55 | 34.78282 | -8.45886 | 36106 ft | 392 kts | 225° |
| 2026-05-04 17:56 | 34.74036 | -8.50057 | 36105 ft | 392 kts | 225° |
| 2026-05-04 17:56 | 34.69787 | -8.54218 | 36105 ft | 392 kts | 225° |
| 2026-05-04 17:57 | 34.65537 | -8.58372 | 36093 ft | 392 kts | 225° |
| 2026-05-04 17:57 | 34.61281 | -8.62521 | 36095 ft | 392 kts | 225° |
| 2026-05-04 17:58 | 34.57031 | -8.66665 | 36095 ft | 392 kts | 225° |
| 2026-05-04 17:58 | 34.52781 | -8.70806 | 36099 ft | 392 kts | 225° |
| 2026-05-04 17:59 | 34.48522 | -8.74938 | 36096 ft | 392 kts | 224° |
| 2026-05-04 18:00 | 34.42126 | -8.81148 | 36096 ft | 393 kts | 224° |
| 2026-05-04 18:00 | 34.37846 | -8.85266 | 36085 ft | 393 kts | 224° |
| 2026-05-04 18:01 | 34.33554 | -8.89376 | 36095 ft | 394 kts | 224° |
| 2026-05-04 18:01 | 34.29265 | -8.93494 | 36098 ft | 394 kts | 224° |
| 2026-05-04 18:02 | 34.22826 | -8.99664 | 36101 ft | 394 kts | 224° |
| 2026-05-04 18:02 | 34.18532 | -9.03773 | 36102 ft | 394 kts | 224° |
| 2026-05-04 18:03 | 34.14237 | -9.07878 | 36102 ft | 394 kts | 224° |
| 2026-05-04 18:03 | 34.09938 | -9.11989 | 36077 ft | 394 kts | 223° |
| 2026-05-04 18:04 | 34.05627 | -9.16093 | 36082 ft | 395 kts | 223° |
| 2026-05-04 18:05 | 33.99142 | -9.22254 | 36090 ft | 396 kts | 223° |
| 2026-05-04 18:05 | 33.94812 | -9.26359 | 36092 ft | 396 kts | 223° |
| 2026-05-04 18:06 | 33.88311 | -9.32524 | 36093 ft | 397 kts | 223° |
| 2026-05-04 18:06 | 33.83974 | -9.36628 | 36076 ft | 397 kts | 223° |
| 2026-05-04 18:07 | 33.79630 | -9.40729 | 36085 ft | 397 kts | 223° |
| 2026-05-04 18:07 | 33.75282 | -9.44835 | 36091 ft | 398 kts | 223° |
| 2026-05-04 18:08 | 33.71662 | -9.48251 | 36090 ft | 398 kts | 223° |
| 2026-05-04 18:08 | 33.67302 | -9.52351 | 36095 ft | 398 kts | 223° |
| 2026-05-04 18:09 | 33.58574 | -9.60552 | 36103 ft | 399 kts | 223° |
| 2026-05-04 18:10 | 33.54208 | -9.64647 | 36091 ft | 398 kts | 223° |
| 2026-05-04 18:10 | 33.49841 | -9.68736 | 36100 ft | 399 kts | 223° |
| 2026-05-04 18:11 | 33.45469 | -9.72820 | 36107 ft | 398 kts | 223° |
| 2026-05-04 18:11 | 33.41103 | -9.76901 | 36110 ft | 398 kts | 223° |
| 2026-05-04 18:12 | 33.36737 | -9.80975 | 36108 ft | 398 kts | 223° |
| 2026-05-04 18:12 | 33.32365 | -9.85052 | 36108 ft | 398 kts | 223° |
| 2026-05-04 18:13 | 33.27992 | -9.89120 | 36100 ft | 398 kts | 223° |
| 2026-05-04 18:14 | 33.21443 | -9.95210 | 36115 ft | 398 kts | 223° |
| 2026-05-04 18:14 | 33.17077 | -9.99260 | 36116 ft | 397 kts | 223° |
| 2026-05-04 18:15 | 33.08344 | -10.07328 | 36122 ft | 397 kts | 223° |
| 2026-05-04 18:16 | 33.04008 | -10.11334 | 36117 ft | 396 kts | 223° |
| 2026-05-04 18:16 | 32.99651 | -10.15359 | 36126 ft | 396 kts | 223° |
| 2026-05-04 18:17 | 32.93114 | -10.21383 | 36104 ft | 396 kts | 223° |
| 2026-05-04 18:18 | 32.86570 | -10.27384 | 36113 ft | 398 kts | 223° |
| 2026-05-04 18:18 | 32.82126 | -10.31454 | 36105 ft | 406 kts | 223° |
| 2026-05-04 18:19 | 32.75395 | -10.37616 | 36102 ft | 408 kts | 223° |
| 2026-05-04 18:19 | 32.70899 | -10.41726 | 36096 ft | 407 kts | 223° |
| 2026-05-04 18:20 | 32.66411 | -10.45813 | 36106 ft | 406 kts | 223° |
| 2026-05-04 18:20 | 32.61930 | -10.49897 | 36110 ft | 406 kts | 223° |
| 2026-05-04 18:21 | 32.57443 | -10.53982 | 36110 ft | 406 kts | 223° |
| 2026-05-04 18:21 | 32.52955 | -10.58055 | 36114 ft | 406 kts | 223° |
| 2026-05-04 18:22 | 32.48469 | -10.62124 | 36117 ft | 406 kts | 223° |
| 2026-05-04 18:22 | 32.43988 | -10.66188 | 36114 ft | 406 kts | 223° |
| 2026-05-04 18:23 | 32.39518 | -10.70245 | 36107 ft | 404 kts | 223° |
| 2026-05-04 18:23 | 32.35061 | -10.74282 | 36115 ft | 403 kts | 223° |
| 2026-05-04 18:24 | 32.30610 | -10.78302 | 36114 ft | 402 kts | 223° |
| 2026-05-04 18:24 | 32.26162 | -10.82308 | 36118 ft | 402 kts | 223° |
| 2026-05-04 18:25 | 32.21722 | -10.86313 | 36116 ft | 401 kts | 223° |
| 2026-05-04 18:25 | 32.17284 | -10.90312 | 36113 ft | 401 kts | 223° |
| 2026-05-04 18:26 | 32.12847 | -10.94304 | 36091 ft | 401 kts | 223° |
| 2026-05-04 18:26 | 32.08424 | -10.98288 | 36113 ft | 400 kts | 223° |
| 2026-05-04 18:27 | 32.04007 | -11.02263 | 36114 ft | 399 kts | 223° |
| 2026-05-04 18:27 | 31.99602 | -11.06222 | 36112 ft | 398 kts | 223° |
| 2026-05-04 18:28 | 31.95199 | -11.10169 | 36109 ft | 398 kts | 223° |
| 2026-05-04 18:28 | 31.90801 | -11.14114 | 36106 ft | 397 kts | 223° |
| 2026-05-04 18:29 | 31.86403 | -11.18052 | 36097 ft | 397 kts | 223° |
| 2026-05-04 18:29 | 31.82024 | -11.21955 | 36098 ft | 397 kts | 223° |
| 2026-05-04 18:30 | 31.75434 | -11.27829 | 36100 ft | 396 kts | 223° |
| 2026-05-04 18:31 | 31.71052 | -11.31743 | 36113 ft | 396 kts | 223° |
| 2026-05-04 18:31 | 31.66670 | -11.35645 | 36108 ft | 395 kts | 223° |
| 2026-05-04 18:32 | 31.62289 | -11.39535 | 36106 ft | 395 kts | 223° |
| 2026-05-04 18:32 | 31.57908 | -11.43414 | 36108 ft | 395 kts | 223° |
| 2026-05-04 18:33 | 31.53530 | -11.47298 | 36083 ft | 394 kts | 223° |
| 2026-05-04 18:33 | 31.49167 | -11.51169 | 36095 ft | 393 kts | 223° |
| 2026-05-04 18:34 | 31.44809 | -11.55027 | 36103 ft | 392 kts | 223° |
| 2026-05-04 18:34 | 31.40454 | -11.58875 | 36099 ft | 392 kts | 223° |
| 2026-05-04 18:35 | 31.36101 | -11.62715 | 36106 ft | 392 kts | 223° |
| 2026-05-04 18:35 | 31.31747 | -11.66549 | 36098 ft | 392 kts | 223° |
| 2026-05-04 18:36 | 31.27393 | -11.70385 | 36098 ft | 392 kts | 223° |
| 2026-05-04 18:36 | 31.23043 | -11.74209 | 36084 ft | 391 kts | 223° |
| 2026-05-04 18:37 | 31.18702 | -11.78019 | 36101 ft | 390 kts | 223° |
| 2026-05-04 18:37 | 31.14371 | -11.81818 | 36106 ft | 389 kts | 223° |
| 2026-05-04 18:38 | 31.10069 | -11.85585 | 36105 ft | 389 kts | 223° |
| 2026-05-04 18:38 | 31.05746 | -11.89368 | 36101 ft | 388 kts | 223° |
| 2026-05-04 18:39 | 31.01425 | -11.93144 | 36103 ft | 388 kts | 223° |
| 2026-05-04 18:39 | 30.97104 | -11.96917 | 36102 ft | 388 kts | 223° |
| 2026-05-04 18:40 | 30.92785 | -12.00686 | 36085 ft | 388 kts | 223° |
| 2026-05-04 18:40 | 30.88471 | -12.04448 | 36106 ft | 387 kts | 223° |
| 2026-05-04 18:41 | 30.84160 | -12.08202 | 36107 ft | 387 kts | 223° |
| 2026-05-04 18:41 | 30.79851 | -12.11950 | 36108 ft | 386 kts | 223° |
| 2026-05-04 18:42 | 30.75546 | -12.15681 | 36103 ft | 386 kts | 223° |
| 2026-05-04 18:42 | 30.71244 | -12.19408 | 36101 ft | 386 kts | 223° |
| 2026-05-04 18:43 | 30.66948 | -12.23137 | 36100 ft | 385 kts | 223° |
| 2026-05-04 18:43 | 30.62653 | -12.26862 | 36081 ft | 385 kts | 223° |
| 2026-05-04 18:44 | 30.58357 | -12.30571 | 36093 ft | 385 kts | 223° |
| 2026-05-04 18:44 | 30.54088 | -12.34253 | 36099 ft | 384 kts | 223° |
| 2026-05-04 18:45 | 30.49797 | -12.37953 | 36103 ft | 384 kts | 223° |
| 2026-05-04 18:45 | 30.45507 | -12.41650 | 36106 ft | 384 kts | 222° |
| 2026-05-04 18:46 | 30.41216 | -12.45339 | 36105 ft | 384 kts | 222° |
| 2026-05-04 18:46 | 30.36930 | -12.49025 | 36106 ft | 384 kts | 222° |
| 2026-05-04 18:47 | 30.32648 | -12.52709 | 36084 ft | 384 kts | 222° |
| 2026-05-04 18:47 | 30.28354 | -12.56385 | 36085 ft | 384 kts | 222° |
| 2026-05-04 18:48 | 30.24065 | -12.60059 | 36086 ft | 384 kts | 222° |
| 2026-05-04 18:48 | 30.19772 | -12.63727 | 36094 ft | 384 kts | 222° |
| 2026-05-04 18:49 | 30.15485 | -12.67400 | 36100 ft | 384 kts | 222° |
| 2026-05-04 18:49 | 30.11193 | -12.71065 | 36093 ft | 384 kts | 221° |
| 2026-05-04 18:50 | 30.06536 | -12.74219 | 36095 ft | 389 kts | 216° |
| 2026-05-04 18:50 | 30.01801 | -12.77247 | 36102 ft | 389 kts | 216° |
| 2026-05-04 18:51 | 29.97064 | -12.80270 | 36103 ft | 389 kts | 216° |
| 2026-05-04 18:51 | 29.92334 | -12.83294 | 36105 ft | 389 kts | 216° |
| 2026-05-04 18:52 | 29.87605 | -12.86314 | 36099 ft | 389 kts | 216° |
| 2026-05-04 18:52 | 29.82875 | -12.89325 | 36101 ft | 388 kts | 216° |
| 2026-05-04 18:53 | 29.78142 | -12.92336 | 36101 ft | 388 kts | 216° |
| 2026-05-04 18:53 | 29.73414 | -12.95342 | 36073 ft | 388 kts | 216° |
| 2026-05-04 18:54 | 29.68683 | -12.98349 | 36081 ft | 389 kts | 216° |
| 2026-05-04 18:54 | 29.64748 | -13.00847 | 36088 ft | 389 kts | 215° |
| 2026-05-04 18:54 | 29.62398 | -13.02333 | 35741 ft | 384 kts | 215° |
| 2026-05-04 18:55 | 29.60046 | -13.03819 | 34928 ft | 386 kts | 215° |
| 2026-05-04 18:55 | 29.54575 | -13.07289 | 33054 ft | 389 kts | 215° |
| 2026-05-04 18:55 | 29.52201 | -13.08795 | 32269 ft | 390 kts | 215° |
| 2026-05-04 18:56 | 29.50605 | -13.09805 | 31975 ft | 385 kts | 215° |
| 2026-05-04 18:56 | 29.48276 | -13.11276 | 31450 ft | 380 kts | 215° |
| 2026-05-04 18:56 | 29.45970 | -13.12729 | 30905 ft | 376 kts | 216° |
| 2026-05-04 18:56 | 29.43717 | -13.14147 | 30402 ft | 373 kts | 216° |
| 2026-05-04 18:57 | 29.41455 | -13.15573 | 29822 ft | 370 kts | 216° |
| 2026-05-04 18:57 | 29.39216 | -13.16986 | 29311 ft | 365 kts | 216° |
| 2026-05-04 18:57 | 29.37008 | -13.18376 | 28799 ft | 360 kts | 216° |
| 2026-05-04 18:57 | 29.34808 | -13.19723 | 28249 ft | 358 kts | 214° |
| 2026-05-04 18:58 | 29.32586 | -13.20985 | 27739 ft | 355 kts | 213° |
| 2026-05-04 18:58 | 29.30362 | -13.22194 | 27209 ft | 353 kts | 212° |
| 2026-05-04 18:58 | 29.28148 | -13.23375 | 26702 ft | 350 kts | 212° |
| 2026-05-04 18:58 | 29.25952 | -13.24545 | 26190 ft | 347 kts | 212° |
| 2026-05-04 18:59 | 29.23778 | -13.25715 | 25713 ft | 344 kts | 212° |
| 2026-05-04 18:59 | 29.21627 | -13.26885 | 25243 ft | 341 kts | 212° |
| 2026-05-04 18:59 | 29.19478 | -13.28061 | 24782 ft | 348 kts | 212° |
| 2026-05-04 18:59 | 29.17253 | -13.29290 | 24306 ft | 359 kts | 212° |
| 2026-05-04 19:00 | 29.14995 | -13.30536 | 23801 ft | 361 kts | 212° |
| 2026-05-04 19:00 | 29.12737 | -13.31773 | 23281 ft | 359 kts | 211° |
| 2026-05-04 19:00 | 29.10489 | -13.33000 | 22787 ft | 357 kts | 211° |
| 2026-05-04 19:00 | 29.08256 | -13.34219 | 22314 ft | 355 kts | 211° |
| 2026-05-04 19:01 | 29.06039 | -13.35431 | 21835 ft | 352 kts | 211° |
| 2026-05-04 19:01 | 29.03835 | -13.36633 | 21356 ft | 350 kts | 211° |
| 2026-05-04 19:01 | 29.01645 | -13.37828 | 20896 ft | 348 kts | 211° |
| 2026-05-04 19:01 | 28.99469 | -13.39016 | 20425 ft | 346 kts | 211° |
| 2026-05-04 19:02 | 28.97304 | -13.40199 | 19961 ft | 344 kts | 211° |
| 2026-05-04 19:02 | 28.95152 | -13.41372 | 19502 ft | 342 kts | 210° |
| 2026-05-04 19:02 | 28.93012 | -13.42538 | 19043 ft | 340 kts | 210° |
| 2026-05-04 19:02 | 28.90883 | -13.43697 | 18585 ft | 338 kts | 210° |
| 2026-05-04 19:03 | 28.88767 | -13.44849 | 18101 ft | 336 kts | 210° |
| 2026-05-04 19:03 | 28.86663 | -13.45995 | 17632 ft | 334 kts | 210° |
| 2026-05-04 19:03 | 28.84574 | -13.47133 | 17177 ft | 332 kts | 210° |
| 2026-05-04 19:03 | 28.82497 | -13.48263 | 16757 ft | 330 kts | 211° |
| 2026-05-04 19:04 | 28.80434 | -13.49387 | 16317 ft | 328 kts | 211° |
| 2026-05-04 19:04 | 28.78382 | -13.50503 | 15869 ft | 326 kts | 211° |
| 2026-05-04 19:04 | 28.76344 | -13.51611 | 15435 ft | 324 kts | 211° |
| 2026-05-04 19:04 | 28.74340 | -13.52698 | 15012 ft | 322 kts | 211° |
| 2026-05-04 19:05 | 28.72323 | -13.53791 | 14562 ft | 320 kts | 211° |
| 2026-05-04 19:05 | 28.70316 | -13.54875 | 14147 ft | 318 kts | 211° |
| 2026-05-04 19:05 | 28.68322 | -13.55955 | 13706 ft | 317 kts | 211° |
| 2026-05-04 19:05 | 28.66338 | -13.57029 | 13256 ft | 315 kts | 211° |
| 2026-05-04 19:06 | 28.64360 | -13.58099 | 12833 ft | 315 kts | 211° |
| 2026-05-04 19:06 | 28.62383 | -13.59170 | 12412 ft | 315 kts | 211° |
| 2026-05-04 19:06 | 28.60405 | -13.60244 | 11982 ft | 315 kts | 211° |
| 2026-05-04 19:06 | 28.58429 | -13.61318 | 11569 ft | 315 kts | 211° |
| 2026-05-04 19:07 | 28.56448 | -13.62394 | 11147 ft | 315 kts | 210° |
| 2026-05-04 19:07 | 28.54468 | -13.63469 | 10714 ft | 315 kts | 210° |
| 2026-05-04 19:07 | 28.52486 | -13.64528 | 10390 ft | 312 kts | 209° |
| 2026-05-04 19:07 | 28.50540 | -13.65501 | 10270 ft | 300 kts | 208° |
| 2026-05-04 19:08 | 28.48658 | -13.66408 | 10131 ft | 290 kts | 207° |
| 2026-05-04 19:08 | 28.46794 | -13.67229 | 10030 ft | 289 kts | 200° |
| 2026-05-04 19:08 | 28.44780 | -13.67582 | 9596 ft | 301 kts | 185° |
| 2026-05-04 19:08 | 28.42681 | -13.67318 | 9243 ft | 302 kts | 175° |
| 2026-05-04 19:09 | 28.40612 | -13.66964 | 8872 ft | 299 kts | 176° |
| 2026-05-04 19:09 | 28.38592 | -13.66637 | 8735 ft | 286 kts | 176° |
| 2026-05-04 19:09 | 28.36668 | -13.66356 | 8399 ft | 271 kts | 182° |
| 2026-05-04 19:09 | 28.34771 | -13.66643 | 8143 ft | 278 kts | 204° |
| 2026-05-04 19:10 | 28.33170 | -13.67715 | 7729 ft | 260 kts | 227° |
| 2026-05-04 19:10 | 28.31965 | -13.69178 | 7323 ft | 249 kts | 231° |
| 2026-05-04 19:10 | 28.30816 | -13.70611 | 6922 ft | 242 kts | 231° |
| 2026-05-04 19:10 | 28.29694 | -13.72008 | 6528 ft | 238 kts | 231° |
| 2026-05-04 19:11 | 28.28599 | -13.73374 | 6117 ft | 237 kts | 231° |
| 2026-05-04 19:11 | 28.27483 | -13.74763 | 5704 ft | 240 kts | 231° |
| 2026-05-04 19:11 | 28.26348 | -13.76172 | 5292 ft | 244 kts | 230° |
| 2026-05-04 19:11 | 28.25207 | -13.77587 | 4887 ft | 241 kts | 231° |
| 2026-05-04 19:12 | 28.24091 | -13.78973 | 4485 ft | 236 kts | 231° |
| 2026-05-04 19:12 | 28.21926 | -13.81696 | 3702 ft | 229 kts | 236° |
| 2026-05-04 19:12 | 28.21370 | -13.83325 | 3298 ft | 220 kts | 269° |
| 2026-05-04 19:13 | 28.21601 | -13.84972 | 3032 ft | 206 kts | 300° |
| 2026-05-04 19:13 | 28.22412 | -13.86206 | 3030 ft | 189 kts | 323° |
| 2026-05-04 19:13 | 28.23525 | -13.86903 | 3040 ft | 181 kts | 345° |
| 2026-05-04 19:13 | 28.24761 | -13.87054 | 3032 ft | 178 kts | 3° |
| 2026-05-04 19:14 | 28.26002 | -13.87012 | 3025 ft | 179 kts | 2° |
| 2026-05-04 19:14 | 28.27248 | -13.86970 | 3029 ft | 180 kts | 2° |
| 2026-05-04 19:14 | 28.28505 | -13.86929 | 2996 ft | 181 kts | 2° |
| 2026-05-04 19:14 | 28.29759 | -13.86888 | 2829 ft | 179 kts | 3° |
| 2026-05-04 19:15 | 28.30979 | -13.86848 | 2617 ft | 171 kts | 3° |
| 2026-05-04 19:15 | 28.32145 | -13.86810 | 2413 ft | 162 kts | 3° |
| 2026-05-04 19:15 | 28.33210 | -13.86775 | 2208 ft | 145 kts | 3° |
| 2026-05-04 19:15 | 28.34184 | -13.86743 | 2022 ft | 136 kts | 5° |
| 2026-05-04 19:16 | 28.35111 | -13.86675 | 1715 ft | 133 kts | 10° |
| 2026-05-04 19:16 | 28.36028 | -13.86648 | 1489 ft | 132 kts | 4° |
| 2026-05-04 19:16 | 28.36927 | -13.86636 | 1384 ft | 130 kts | 4° |
| 2026-05-04 19:16 | 28.37830 | -13.86613 | 1271 ft | 130 kts | 6° |
| 2026-05-04 19:17 | 28.38729 | -13.86587 | 1175 ft | 128 kts | 5° |
| 2026-05-04 19:17 | 28.39624 | -13.86555 | 1039 ft | 128 kts | 4° |
| 2026-05-04 19:17 | 28.40516 | -13.86528 | 894 ft | 128 kts | 6° |
| 2026-05-04 19:17 | 28.41403 | -13.86500 | 684 ft | 128 kts | 5° |
| 2026-05-04 19:18 | 28.42290 | -13.86479 | 519 ft | 128 kts | 4° |
| 2026-05-04 19:18 | 28.43184 | -13.86449 | 297 ft | 128 kts | 4° |
| 2026-05-04 19:18 | 28.44064 | -13.86421 | 112 ft | 126 kts | 3° |
| 2026-05-04 19:18 | 28.44883 | -13.86384 | 68 ft | 105 kts | 4° |
| 2026-05-04 19:19 | 28.45459 | -13.86368 | 84 ft | 55 kts | 2° |
| 2026-05-04 19:19 | 28.45620 | -13.86363 | 85 ft | 8 kts | 1° |
| 2026-05-04 19:19 | 28.45663 | -13.86406 | 88 ft | 10 kts | 281° |
| 2026-05-04 19:19 | 28.45661 | -13.86464 | 90 ft | 4 kts | 268° |
| 2026-05-04 19:20 | 28.45661 | -13.86484 | 92 ft | 7 kts | 269° |
| 2026-05-04 19:20 | 28.45654 | -13.86544 | 96 ft | 7 kts | 242° |
| 2026-05-04 19:20 | 28.45602 | -13.86559 | 94 ft | 9 kts | 181° |
| 2026-05-04 19:20 | 28.45540 | -13.86561 | 94 ft | 12 kts | 181° |
| 2026-05-04 19:21 | 28.45458 | -13.86563 | 95 ft | 11 kts | 181° |
| 2026-05-04 19:21 | 28.45384 | -13.86577 | 94 ft | 11 kts | 211° |
| 2026-05-04 19:21 | 28.45368 | -13.86645 | 94 ft | 9 kts | 276° |
| 2026-05-04 19:21 | 28.45368 | -13.86706 | 95 ft | 7 kts | 257° |
| 2026-05-04 19:22 | 28.45338 | -13.86736 | 95 ft | 6 kts | 198° |
| 2026-05-04 19:22 | 28.45298 | -13.86738 | 95 ft | 6 kts | 180° |
| 2026-05-04 19:22 | 28.45266 | -13.86745 | 95 ft | 4 kts | 226° |
| 2026-05-04 19:22 | 28.45267 | -13.86763 | 97 ft | 3 kts | 278° |
| 2026-05-04 19:23 | 28.45269 | -13.86783 | 97 ft | 2 kts | 275° |
| 2026-05-04 19:23 | 28.45270 | -13.86798 | 95 ft | 2 kts | 272° |
| 2026-05-04 19:23 | 28.45270 | -13.86809 | 95 ft | 1 kts | 272° |
| 2026-05-04 19:23 | 28.45270 | -13.86816 | 96 ft | 1 kts | 272° |
| 2026-05-04 19:24 | 28.45270 | -13.86820 | 96 ft | 0 kts | 272° |
| 2026-05-04 19:24 | 28.45270 | -13.86828 | 95 ft | 2 kts | 271° |
| 2026-05-04 19:24 | 28.45271 | -13.86835 | 95 ft | 0 kts | 271° |
| 2026-05-04 19:24 | 28.45271 | -13.86838 | 95 ft | 0 kts | 271° |